Time;durP1;ratioP1;P1;durP2;ratioP2;P2;SDS_P1;SDS_P2;PMS_P1;PMS_P2;Temp;Humidity;BMP_temperature;BMP_pressure;BME280_temperature;BME280_humidity;BME280_pressure;Samples;Min_cycle;Max_cycle;Signal;HPM_P1;HPM_P2
2022/08/23 00:01:48;;;;;;;4.60;2.75;;;;;;;26.36;41.36;101105.66;5013064;28;20044;-62
2022/08/23 00:04:17;;;;;;;10.15;3.17;;;;;;;26.32;41.70;101093.44;5014250;28;20072;-62
2022/08/23 00:06:44;;;;;;;6.05;2.67;;;;;;;26.30;41.29;101095.59;5012873;28;20046;-62
2022/08/23 00:09:09;;;;;;;5.45;2.50;;;;;;;26.26;41.36;101097.09;4996577;28;20051;-62
2022/08/23 00:11:47;;;;;;;5.90;2.63;;;;;;;26.22;41.88;101098.59;5011385;28;20053;-62
2022/08/23 00:14:19;;;;;;;7.60;3.47;;;;;;;26.20;41.48;101100.75;5014521;28;20028;-62
2022/08/23 00:16:45;;;;;;;5.35;2.72;;;;;;;26.16;41.41;101092.09;5015340;28;20416;-62
2022/08/23 00:19:13;;;;;;;6.97;3.13;;;;;;;26.13;41.70;101091.69;5014019;28;20057;-62
2022/08/23 00:21:40;;;;;;;8.63;3.50;;;;;;;26.09;41.52;101091.31;5015526;28;20083;-62
2022/08/23 00:24:06;;;;;;;10.13;2.90;;;;;;;26.04;41.81;101097.47;5015045;28;20032;-62
2022/08/23 00:26:54;;;;;;;4.10;2.60;;;;;;;26.00;41.88;101090.72;5015060;28;20033;-62
2022/08/23 00:29:21;;;;;;;7.97;3.22;;;;;;;25.95;42.14;101097.97;5015059;28;20049;-62
2022/08/23 00:31:47;;;;;;;9.05;3.47;;;;;;;25.92;41.96;101093.75;5014987;28;20025;-62
2022/08/23 00:34:13;;;;;;;7.72;3.00;;;;;;;25.87;41.67;101090.84;5015107;28;20029;-62
2022/08/23 00:36:39;;;;;;;5.63;2.67;;;;;;;25.83;42.30;101089.59;5014848;28;20034;-62
2022/08/23 00:39:04;;;;;;;6.18;2.90;;;;;;;25.78;42.20;101091.31;5015091;28;20022;-62
2022/08/23 00:41:31;;;;;;;5.70;2.50;;;;;;;25.73;42.22;101088.41;5013555;28;20028;-62
2022/08/23 00:49:35;;;;;;;9.10;2.50;;;;;;;25.60;42.48;101089.31;5013725;28;20160;-62
2022/08/23 00:52:21;;;;;;;8.77;2.90;;;;;;;25.56;42.12;101082.63;5013419;28;20029;-62
2022/08/23 00:54:48;;;;;;;7.65;3.10;;;;;;;25.54;42.49;101090.25;5014355;28;20053;-62
2022/08/23 00:57:15;;;;;;;6.00;2.85;;;;;;;25.52;42.63;101091.53;5013001;28;20050;-62
2022/08/23 00:59:40;;;;;;;5.05;3.15;;;;;;;25.49;42.12;101087.28;4996916;28;20113;-62
2022/08/23 01:02:06;;;;;;;13.20;3.80;;;;;;;25.49;42.29;101094.69;5014611;28;20129;-62
2022/08/23 01:04:36;;;;;;;5.22;3.00;;;;;;;25.45;42.61;101086.03;5014524;28;20065;-62
2022/08/23 01:07:21;;;;;;;8.40;2.92;;;;;;;25.41;42.49;101084.78;5013445;28;20089;-62
2022/08/23 01:09:47;;;;;;;3.25;2.50;;;;;;;25.37;42.69;101083.56;4995970;28;20045;-62
2022/08/23 01:12:23;;;;;;;7.75;3.38;;;;;;;25.35;42.33;101091.13;4995843;28;20128;-62
2022/08/23 01:14:54;;;;;;;15.75;3.80;;;;;;;25.32;42.82;101094.34;5013527;28;20076;-62
2022/08/23 01:17:25;;;;;;;6.18;2.45;;;;;;;25.27;43.27;101084.00;5013446;28;20434;-62
2022/08/23 01:19:54;;;;;;;7.45;3.08;;;;;;;25.25;42.96;101096.25;5013600;28;20058;-62
2022/08/23 01:22:56;;;;;;;3.85;2.95;;;;;;;25.20;43.28;101091.44;5012121;28;20034;-62
2022/08/23 01:25:23;;;;;;;7.35;3.22;;;;;;;25.19;42.50;101097.13;4991631;28;20445;-62
2022/08/23 01:27:49;;;;;;;13.38;4.68;;;;;;;25.17;43.30;101093.78;5012087;28;20038;-62
2022/08/23 01:30:21;;;;;;;6.65;3.63;;;;;;;25.14;43.17;101100.53;5013475;28;20029;-62
2022/08/23 01:32:53;;;;;;;5.88;3.47;;;;;;;25.11;43.26;101094.63;5012073;28;20021;-62
2022/08/23 01:35:21;;;;;;;9.20;3.60;;;;;;;25.08;43.36;101097.81;5011957;28;20120;-62
2022/08/23 01:37:46;;;;;;;8.70;3.65;;;;;;;25.05;43.19;101090.03;5011788;28;20032;-62
2022/08/23 01:40:12;;;;;;;5.60;3.58;;;;;;;25.03;42.91;101097.63;5013010;28;20038;-62
2022/08/23 01:42:41;;;;;;;8.00;3.75;;;;;;;24.98;43.84;101089.22;5011881;28;20026;-62
2022/08/23 01:45:10;;;;;;;11.88;3.60;;;;;;;24.98;43.12;101089.22;5013040;28;20391;-62
2022/08/23 01:47:35;;;;;;;9.13;4.40;;;;;;;24.95;43.03;101095.13;5012999;28;20097;-62
2022/08/23 01:50:01;;;;;;;9.35;3.97;;;;;;;24.96;43.75;101094.91;5013260;28;20109;-62
2022/08/23 01:52:26;;;;;;;9.70;3.55;;;;;;;24.96;43.36;101102.31;5013148;28;20061;-61
2022/08/23 01:54:52;;;;;;;11.27;3.72;;;;;;;24.95;43.26;101095.97;5012851;28;20030;-62
2022/08/23 01:57:17;;;;;;;8.52;3.25;;;;;;;24.93;43.24;101098.06;5011614;28;20080;-62
2022/08/23 01:59:43;;;;;;;5.80;3.90;;;;;;;24.93;43.75;101094.50;5011582;28;20040;-62
2022/08/23 02:02:08;;;;;;;12.88;3.92;;;;;;;24.90;43.56;101093.88;5012982;28;20464;-62
2022/08/23 02:04:33;;;;;;;17.75;4.32;;;;;;;24.89;43.41;101100.44;5011632;28;20049;-62
2022/08/23 02:06:59;;;;;;;5.85;4.25;;;;;;;24.86;43.57;101103.59;4972842;28;1121365;-62
2022/08/23 02:09:24;;;;;;;4.97;3.28;;;;;;;24.83;43.34;101104.03;5012000;28;20034;-63
2022/08/23 02:11:49;;;;;;;7.38;3.80;;;;;;;24.82;44.12;101109.69;5013409;28;20026;-62
2022/08/23 02:14:19;;;;;;;4.55;3.40;;;;;;;24.78;44.08;101108.44;5013482;28;20034;-62
2022/08/23 02:16:54;;;;;;;5.68;3.38;;;;;;;24.75;44.02;101106.13;5012175;28;20030;-62
2022/08/23 02:19:19;;;;;;;5.85;3.28;;;;;;;24.73;44.17;101108.25;5013398;28;20152;-62
2022/08/23 02:21:45;;;;;;;5.68;3.50;;;;;;;24.72;43.26;101112.03;5013360;28;20172;-62
2022/08/23 02:24:17;;;;;;;8.65;3.88;;;;;;;24.69;43.67;101115.19;5012149;28;20022;-62
2022/08/23 02:26:45;;;;;;;5.90;3.92;;;;;;;24.68;44.32;101105.31;5013271;28;20033;-62
2022/08/23 02:29:11;;;;;;;5.43;3.35;;;;;;;24.65;44.38;101109.28;5012076;28;20030;-62
2022/08/23 02:31:37;;;;;;;4.88;3.42;;;;;;;24.64;43.79;101110.38;5012065;28;20104;-62
2022/08/23 02:34:04;;;;;;;6.82;3.70;;;;;;;24.62;44.10;101117.13;5012090;28;20073;-61
2022/08/23 02:36:30;;;;;;;5.13;2.70;;;;;;;24.58;43.80;101111.22;5013578;28;20411;-62
2022/08/23 02:38:56;;;;;;;5.90;3.28;;;;;;;24.60;44.09;101114.59;5013145;28;20037;-62
2022/08/23 02:41:22;;;;;;;6.10;3.20;;;;;;;24.58;43.83;101105.75;5013248;28;20100;-62
2022/08/23 02:43:51;;;;;;;11.73;3.80;;;;;;;24.57;43.99;101109.53;5012014;28;20049;-62
2022/08/23 02:46:17;;;;;;;7.95;3.20;;;;;;;24.56;44.12;101116.09;5012156;28;20080;-62
2022/08/23 02:48:42;;;;;;;9.18;4.05;;;;;;;24.55;44.56;101117.13;5011934;28;20101;-62
2022/08/23 02:51:08;;;;;;;6.65;3.63;;;;;;;24.53;43.73;101119.25;5013089;28;20022;-62
2022/08/23 02:53:34;;;;;;;3.65;2.60;;;;;;;24.51;44.17;101115.84;5013425;28;20088;-62
2022/08/23 02:55:59;;;;;;;6.75;3.35;;;;;;;24.54;44.29;101115.44;5013271;28;20438;-62
2022/08/23 02:58:25;;;;;;;6.40;3.67;;;;;;;24.53;44.29;101119.25;5011803;28;20503;-62
2022/08/23 03:00:51;;;;;;;6.63;4.05;;;;;;;24.54;44.21;101118.16;5011860;28;20049;-62
2022/08/23 03:03:17;;;;;;;8.43;3.17;;;;;;;24.53;44.50;101121.13;5012031;28;20390;-62
2022/08/23 03:05:42;;;;;;;4.88;3.20;;;;;;;24.53;45.05;101124.72;5011697;28;20057;-62
2022/08/23 03:08:08;;;;;;;5.13;3.17;;;;;;;24.51;44.68;101121.34;5011659;28;20454;-62
2022/08/23 03:10:33;;;;;;;5.90;3.10;;;;;;;24.53;45.05;101124.72;5012857;28;20034;-62
2022/08/23 03:13:00;;;;;;;5.65;2.88;;;;;;;24.54;44.39;101123.66;5012914;28;20038;-62
2022/08/23 03:15:25;;;;;;;5.57;3.10;;;;;;;24.56;44.16;101124.31;5011685;28;20026;-62
2022/08/23 03:17:50;;;;;;;7.80;3.63;;;;;;;24.59;45.18;101129.34;5012888;28;20423;-62
2022/08/23 03:20:16;;;;;;;5.93;3.25;;;;;;;24.61;44.65;101121.75;5015805;28;20065;-62
2022/08/23 03:22:41;;;;;;;11.68;3.83;;;;;;;24.63;44.93;101125.13;5016468;28;20398;-62
2022/08/23 03:25:07;;;;;;;7.20;3.55;;;;;;;24.65;44.64;101127.66;5015227;28;20025;-62
2022/08/23 03:27:33;;;;;;;5.07;2.95;;;;;;;24.66;45.20;101130.16;5016285;28;20034;-62
2022/08/23 03:29:59;;;;;;;6.38;3.45;;;;;;;24.66;44.95;101124.69;5016229;28;20105;-62
2022/08/23 03:32:25;;;;;;;5.85;3.17;;;;;;;24.67;45.02;101123.66;5016051;28;20036;-62
2022/08/23 03:34:51;;;;;;;5.75;3.78;;;;;;;24.70;44.74;101134.19;5016423;28;20046;-62
2022/08/23 03:37:16;;;;;;;3.95;2.92;;;;;;;24.69;45.02;101124.25;5014877;28;20032;-62
2022/08/23 03:39:42;;;;;;;6.78;2.90;;;;;;;24.74;45.48;101132.69;5014795;28;20108;-62
2022/08/23 03:42:07;;;;;;;6.53;3.83;;;;;;;24.78;45.37;101130.34;5015999;28;20030;-62
2022/08/23 03:44:33;;;;;;;7.60;3.45;;;;;;;24.81;45.31;101139.03;5015932;28;20025;-62
2022/08/23 03:46:58;;;;;;;5.18;3.67;;;;;;;24.83;45.05;101136.06;4994229;28;20029;-62
2022/08/23 03:49:24;;;;;;;4.55;3.15;;;;;;;24.83;45.54;101134.19;5019889;28;20476;-62
2022/08/23 03:51:49;;;;;;;6.05;3.35;;;;;;;24.86;45.13;101131.00;5015633;28;20076;-62
2022/08/23 03:54:14;;;;;;;6.70;3.40;;;;;;;24.94;45.02;101142.78;5015821;28;20491;-62
2022/08/23 03:56:52;;;;;;;5.57;2.78;;;;;;;25.00;44.88;101139.19;4998495;28;20116;-62
2022/08/23 03:59:17;;;;;;;9.05;3.08;;;;;;;25.05;45.44;101140.22;5015509;28;20161;-62
2022/08/23 04:01:43;;;;;;;7.38;3.42;;;;;;;25.12;44.79;101152.03;5015567;28;20041;-62
2022/08/23 04:04:08;;;;;;;5.65;2.78;;;;;;;25.18;45.11;101155.78;5014372;28;20033;-62
2022/08/23 04:06:34;;;;;;;7.28;3.75;;;;;;;25.24;44.71;101161.25;5014019;28;20058;-62
2022/08/23 04:08:59;;;;;;;7.05;2.75;;;;;;;25.29;44.87;101164.16;5014360;28;20060;-62
2022/08/23 04:11:24;;;;;;;8.30;3.35;;;;;;;25.35;44.74;101151.47;5015416;28;20060;-62
2022/08/23 04:13:50;;;;;;;6.93;3.30;;;;;;;25.41;44.63;101153.34;5014184;28;20037;-62
2022/08/23 04:16:17;;;;;;;6.55;3.50;;;;;;;25.47;44.64;101158.00;5015264;28;20030;-62
2022/08/23 04:18:43;;;;;;;5.13;3.28;;;;;;;25.53;44.79;101170.84;5014313;28;20446;-62
2022/08/23 04:21:13;;;;;;;9.15;3.08;;;;;;;25.57;44.27;101169.38;5015188;28;20029;-62
2022/08/23 04:23:38;;;;;;;6.60;2.70;;;;;;;25.60;44.54;101168.09;5013838;28;20033;-62
2022/08/23 04:26:05;;;;;;;7.38;3.15;;;;;;;25.66;44.65;101176.28;5013938;28;20022;-62
2022/08/23 04:28:31;;;;;;;9.15;3.28;;;;;;;25.71;44.72;101173.69;5014153;28;20108;-62
2022/08/23 04:30:59;;;;;;;11.48;3.40;;;;;;;25.75;44.40;101174.13;5014058;28;20069;-62
2022/08/23 04:33:24;;;;;;;8.68;3.90;;;;;;;25.79;44.64;101176.22;5014030;28;20433;-62
2022/08/23 04:35:50;;;;;;;6.72;3.10;;;;;;;25.82;44.38;101175.78;5014870;28;20041;-62
2022/08/23 04:38:15;;;;;;;7.40;2.70;;;;;;;25.86;44.15;101182.50;5013541;28;20394;-62
2022/08/23 04:43:26;;;;;;;8.68;3.88;;;;;;;25.92;44.79;101184.38;5014788;28;20072;-62
2022/08/23 04:45:51;;;;;;;8.57;3.72;;;;;;;25.95;44.38;101186.66;5014734;28;20124;-62
2022/08/23 04:48:17;;;;;;;6.60;3.53;;;;;;;25.98;44.35;101185.38;5013549;28;20029;-62
2022/08/23 04:50:42;;;;;;;8.35;3.08;;;;;;;25.98;43.90;101180.75;5014718;28;20434;-62
2022/08/23 04:53:08;;;;;;;7.82;3.25;;;;;;;26.03;44.23;101180.91;5013672;28;20073;-62
2022/08/23 04:55:33;;;;;;;6.63;3.40;;;;;;;26.05;44.19;101188.91;5014552;28;20034;-62
2022/08/23 04:57:58;;;;;;;6.30;3.17;;;;;;;26.07;44.18;101191.44;4996969;28;20061;-62
2022/08/23 05:00:24;;;;;;;6.28;3.85;;;;;;;26.08;43.72;101195.88;5014448;28;20026;-62
2022/08/23 05:02:49;;;;;;;10.98;3.00;;;;;;;26.09;43.91;101189.31;5014748;28;20039;-62
2022/08/23 05:05:15;;;;;;;11.30;2.85;;;;;;;26.10;43.58;101202.84;5014431;28;20046;-62
2022/08/23 05:07:41;;;;;;;4.85;2.75;;;;;;;26.13;43.59;101201.56;5013111;28;20038;-62
2022/08/23 05:10:08;;;;;;;7.07;3.47;;;;;;;26.17;43.49;101208.31;4996707;28;20018;-62
2022/08/23 05:12:34;;;;;;;7.65;3.15;;;;;;;26.18;44.28;101199.00;5013266;28;20088;-62
2022/08/23 05:14:59;;;;;;;7.55;3.05;;;;;;;26.27;43.45;101205.94;5014226;28;20026;-62
2022/08/23 05:17:24;;;;;;;5.78;2.80;;;;;;;26.27;43.86;101212.25;5014168;28;20030;-62
2022/08/23 05:19:50;;;;;;;6.78;2.92;;;;;;;26.30;43.44;101222.78;5013172;28;20032;-62
2022/08/23 05:22:15;;;;;;;5.68;3.33;;;;;;;26.31;43.64;101224.47;5012922;28;20033;-62
2022/08/23 05:24:41;;;;;;;6.45;2.58;;;;;;;26.32;43.71;101220.69;5014091;28;20033;-62
2022/08/23 05:27:06;;;;;;;7.07;2.97;;;;;;;26.33;43.89;101227.00;5012766;28;20025;-62
2022/08/23 05:29:31;;;;;;;5.43;2.90;;;;;;;26.35;43.23;101224.88;5012727;28;20036;-62
2022/08/23 05:31:57;;;;;;;13.23;3.20;;;;;;;26.35;43.74;101219.38;5012795;28;20029;-62
2022/08/23 05:34:23;;;;;;;4.47;3.20;;;;;;;26.36;43.56;101234.78;5014013;28;20025;-62
2022/08/23 05:36:48;;;;;;;6.05;3.20;;;;;;;26.36;43.69;101229.28;5013887;28;20152;-62
2022/08/23 05:39:14;;;;;;;7.20;3.50;;;;;;;26.36;43.23;101232.03;5013930;28;20064;-62
2022/08/23 05:41:41;;;;;;;13.57;3.92;;;;;;;26.38;43.27;101229.94;5012545;28;20058;-62
2022/08/23 05:44:06;;;;;;;8.32;3.33;;;;;;;26.37;43.25;101233.75;4996590;28;20171;-62
2022/08/23 05:46:32;;;;;;;8.23;2.53;;;;;;;26.43;43.35;101241.09;5013520;28;20530;-62
2022/08/23 05:48:57;;;;;;;10.93;3.10;;;;;;;26.43;43.04;101239.19;5013651;28;20026;-62
2022/08/23 05:51:29;;;;;;;10.10;3.88;;;;;;;26.52;42.89;101242.50;5013681;28;20030;-62
2022/08/23 05:53:58;;;;;;;4.53;3.35;;;;;;;26.64;43.03;101243.44;4995914;28;20026;-63
2022/08/23 05:56:26;;;;;;;14.60;3.17;;;;;;;26.75;42.69;101234.47;5012385;28;20029;-61
2022/08/23 05:58:54;;;;;;;5.22;3.00;;;;;;;26.84;43.06;101235.06;5013677;28;20034;-62
2022/08/23 06:01:20;;;;;;;6.25;2.95;;;;;;;26.86;43.05;101235.66;5012063;28;20395;-62
2022/08/23 06:03:46;;;;;;;9.80;3.83;;;;;;;26.95;42.92;101243.41;5013194;28;20077;-62
2022/08/23 06:06:13;;;;;;;6.38;3.53;;;;;;;26.99;42.74;101250.16;5013420;28;20062;-62
2022/08/23 06:08:39;;;;;;;6.70;3.15;;;;;;;27.08;43.24;101254.28;5013401;28;20109;-62
2022/08/23 06:11:08;;;;;;;9.57;3.10;;;;;;;27.14;41.93;101258.88;5012605;28;20536;-62
2022/08/23 06:13:37;;;;;;;9.23;3.05;;;;;;;27.21;42.66;101255.22;5013674;28;20087;-62
2022/08/23 06:16:04;;;;;;;6.78;2.85;;;;;;;27.26;42.61;101255.38;5013637;28;20030;-62
2022/08/23 06:18:29;;;;;;;10.55;3.10;;;;;;;27.30;42.20;101256.63;5013293;28;20026;-62
2022/08/23 06:21:00;;;;;;;6.78;3.10;;;;;;;27.36;42.71;101262.03;5013432;28;20080;-62
2022/08/23 06:23:25;;;;;;;7.05;3.10;;;;;;;27.55;42.70;101261.00;5012337;28;20034;-62
2022/08/23 06:25:50;;;;;;;9.38;3.17;;;;;;;27.62;42.71;101260.91;5013282;28;20041;-62
2022/08/23 06:28:16;;;;;;;12.98;3.63;;;;;;;27.73;41.43;101269.25;5013496;28;20108;-62
2022/08/23 06:30:41;;;;;;;4.43;3.30;;;;;;;27.80;42.53;101255.41;5013478;28;20030;-62
2022/08/23 06:33:07;;;;;;;12.90;2.90;;;;;;;27.86;41.88;101260.00;5013197;28;20021;-62
2022/08/23 06:35:33;;;;;;;5.00;2.92;;;;;;;27.98;41.61;101260.00;5013306;28;20034;-62
2022/08/23 06:38:01;;;;;;;11.07;3.20;;;;;;;28.18;42.05;101261.47;5013144;28;20502;-62
2022/08/23 06:40:27;;;;;;;5.07;3.88;;;;;;;28.49;41.74;101251.22;5013129;28;20041;-62
2022/08/23 06:42:53;;;;;;;10.98;3.20;;;;;;;28.71;40.59;101257.91;5012253;28;20503;-62
2022/08/23 06:45:19;;;;;;;6.28;2.72;;;;;;;28.92;40.97;101254.59;5013172;28;20037;-62
2022/08/23 06:47:44;;;;;;;5.63;2.97;;;;;;;29.16;41.01;101259.00;5013069;28;20042;-62
2022/08/23 06:50:10;;;;;;;10.88;3.33;;;;;;;29.40;39.82;101257.06;5011824;28;20030;-62
2022/08/23 06:52:35;;;;;;;8.73;3.10;;;;;;;29.64;40.25;101255.13;5013069;28;20026;-62
2022/08/23 06:55:01;;;;;;;9.98;3.58;;;;;;;29.86;39.92;101258.94;5014773;28;20038;-63
2022/08/23 06:57:27;;;;;;;8.85;3.28;;;;;;;30.06;39.89;101252.97;5016797;28;20033;-62
2022/08/23 06:59:52;;;;;;;10.52;3.20;;;;;;;30.24;39.60;101256.34;5016614;28;20034;-62
2022/08/23 07:02:17;;;;;;;6.18;3.38;;;;;;;30.46;39.08;101254.56;5015588;28;20061;-62
2022/08/23 07:04:43;;;;;;;7.50;3.28;;;;;;;30.67;39.11;101249.38;5016722;28;20034;-62
2022/08/23 07:07:09;;;;;;;9.50;3.17;;;;;;;30.87;38.87;101250.56;5015208;28;20049;-62
2022/08/23 07:09:35;;;;;;;11.50;3.60;;;;;;;31.10;38.73;101255.13;5015619;28;20057;-62
2022/08/23 07:12:01;;;;;;;6.68;3.00;;;;;;;31.31;38.50;101262.59;5016453;28;20101;-62
2022/08/23 07:14:26;;;;;;;9.38;3.58;;;;;;;31.47;38.35;101249.81;5016388;28;20030;-62
2022/08/23 07:16:58;;;;;;;12.35;3.35;;;;;;;31.70;38.26;101255.13;5016353;28;20506;-62
2022/08/23 07:19:26;;;;;;;10.80;2.93;;;;;;;31.91;38.05;101251.47;5016320;28;20026;-62
2022/08/23 07:21:52;;;;;;;13.65;3.63;;;;;;;32.13;37.86;101260.63;5016262;28;20393;-62
2022/08/23 07:24:18;;;;;;;7.90;2.90;;;;;;;32.32;37.29;101261.13;5016131;28;20030;-62
2022/08/23 07:26:46;;;;;;;5.80;3.13;;;;;;;32.43;36.62;101254.56;5016246;28;20030;-63
2022/08/23 07:29:12;;;;;;;8.60;3.50;;;;;;;32.68;36.39;101257.63;5016233;28;20022;-63
2022/08/23 07:31:43;;;;;;;7.43;3.47;;;;;;;32.88;36.32;101272.75;5015248;28;20468;-63
2022/08/23 07:34:09;;;;;;;8.17;2.77;;;;;;;33.08;36.62;101268.22;5016259;28;20044;-63
2022/08/23 07:36:35;;;;;;;5.75;3.28;;;;;;;33.29;35.90;101274.72;5016126;28;20030;-63
2022/08/23 07:39:01;;;;;;;13.32;3.75;;;;;;;33.45;36.26;101268.16;5015972;28;20057;-63
2022/08/23 07:41:31;;;;;;;5.82;2.83;;;;;;;33.63;35.65;101270.50;5015988;28;20053;-63
2022/08/23 07:44:00;;;;;;;5.50;2.95;;;;;;;33.81;35.59;101275.56;5016161;28;20033;-63
2022/08/23 07:46:26;;;;;;;7.63;2.85;;;;;;;33.94;35.54;101275.09;5015802;28;20092;-63
2022/08/23 07:48:52;;;;;;;8.77;3.45;;;;;;;34.09;34.42;101279.06;5014916;28;20487;-63
2022/08/23 07:51:17;;;;;;;9.73;3.20;;;;;;;34.17;34.76;101281.31;5015770;28;20030;-63
2022/08/23 07:53:44;;;;;;;8.45;2.60;;;;;;;34.32;35.22;101295.22;5014385;28;20029;-63
2022/08/23 07:56:11;;;;;;;9.77;2.78;;;;;;;34.48;34.55;101288.56;5015716;28;20025;-63
2022/08/23 07:58:36;;;;;;;9.77;3.42;;;;;;;34.63;34.02;101288.63;5015346;28;20026;-63
2022/08/23 08:01:21;;;;;;;7.57;3.42;;;;;;;34.78;34.46;101297.00;5015650;28;20042;-63
2022/08/23 08:03:51;;;;;;;9.27;3.63;;;;;;;34.91;34.55;101293.66;5015546;28;20030;-64
2022/08/23 08:06:20;;;;;;;9.95;3.20;;;;;;;35.07;34.11;101300.06;5015291;28;20075;-63
2022/08/23 08:08:47;;;;;;;6.90;2.97;;;;;;;35.21;33.71;101298.38;5015387;28;20018;-63
2022/08/23 08:11:15;;;;;;;5.28;2.38;;;;;;;35.42;33.56;101304.75;5014182;28;20076;-64
2022/08/23 08:13:41;;;;;;;10.63;3.10;;;;;;;35.60;33.44;101301.38;5015377;28;20540;-63
2022/08/23 08:16:08;;;;;;;10.65;3.35;;;;;;;35.76;32.87;101314.16;5015461;28;20040;-62
2022/08/23 08:18:35;;;;;;;9.45;2.92;;;;;;;35.92;32.79;101304.59;5015245;28;20076;-63
2022/08/23 08:21:00;;;;;;;5.43;2.63;;;;;;;36.07;32.93;101307.34;5015157;28;20475;-63
2022/08/23 08:23:28;;;;;;;8.38;2.90;;;;;;;36.24;32.87;101306.16;5015055;28;20030;-64
2022/08/23 08:26:06;;;;;;;7.82;2.72;;;;;;;36.36;32.58;101310.25;5013379;28;20026;-63
2022/08/23 08:28:32;;;;;;;10.85;3.40;;;;;;;36.46;32.85;101310.16;5012645;28;20025;-63
2022/08/23 08:30:57;;;;;;;7.72;2.75;;;;;;;36.65;32.39;101310.38;5013626;28;20069;-63
2022/08/23 08:33:24;;;;;;;5.18;2.63;;;;;;;36.83;32.21;101306.00;5013474;28;20137;-64
2022/08/23 08:35:49;;;;;;;14.20;2.70;;;;;;;37.01;32.27;101305.34;5009404;28;20080;-63
2022/08/23 08:38:15;;;;;;;6.45;2.40;;;;;;;37.20;31.99;101301.53;5013333;28;20030;-63
2022/08/23 08:40:41;;;;;;;8.10;2.13;;;;;;;37.21;31.94;101306.00;5012273;28;20456;-63
2022/08/23 08:43:31;;;;;;;6.88;2.53;;;;;;;37.35;31.14;101314.50;5011850;28;20022;-63
2022/08/23 08:46:12;;;;;;;11.25;2.72;;;;;;;37.47;31.50;101302.97;5011657;28;20025;-63
2022/08/23 08:48:45;;;;;;;3.70;2.90;;;;;;;37.54;30.92;101309.03;5011838;28;20391;-63
2022/08/23 08:51:32;;;;;;;8.55;3.20;;;;;;;37.64;30.82;101306.09;5010945;28;20022;-63
2022/08/23 08:53:58;;;;;;;6.78;2.47;;;;;;;37.79;31.24;101308.72;5010593;28;20076;-64
2022/08/23 08:56:29;;;;;;;8.15;2.40;;;;;;;37.97;31.17;101313.53;5012011;28;20037;-64
2022/08/23 08:58:58;;;;;;;9.50;3.08;;;;;;;38.13;30.67;101312.22;5013095;28;20535;-64
2022/08/23 09:01:25;;;;;;;5.72;2.25;;;;;;;38.19;30.45;101305.41;5011898;28;20029;-64
2022/08/23 09:03:50;;;;;;;8.90;2.88;;;;;;;38.27;29.87;101313.13;5011414;28;20017;-64
2022/08/23 09:06:54;;;;;;;11.07;3.83;;;;;;;38.38;30.44;101314.69;5011099;28;20127;-64
2022/08/23 09:09:39;;;;;;;7.47;2.85;;;;;;;38.54;29.47;101306.88;4964533;28;20049;-63
2022/08/23 09:12:23;;;;;;;7.05;2.83;;;;;;;38.68;29.71;101313.38;4965709;28;20046;-64
2022/08/23 09:14:53;;;;;;;7.13;2.72;;;;;;;38.80;28.86;101310.13;4957104;28;20034;-64
2022/08/23 09:17:39;;;;;;;5.68;1.85;;;;;;;39.03;28.89;101309.19;4958392;28;20034;-64
2022/08/23 09:20:05;;;;;;;4.22;2.30;;;;;;;39.20;28.96;101308.59;4967697;28;20035;-64
2022/08/23 09:22:48;;;;;;;10.32;2.65;;;;;;;39.31;28.74;101305.28;4966129;28;20030;-64
2022/08/23 09:25:15;;;;;;;4.35;1.67;;;;;;;39.48;28.97;101305.53;4992244;28;20038;-64
2022/08/23 09:27:42;;;;;;;7.13;1.95;;;;;;;39.63;29.06;101303.56;4987052;28;20538;-64
2022/08/23 09:30:09;;;;;;;5.18;2.15;;;;;;;39.75;28.23;101303.91;4978094;28;20058;-64
2022/08/23 09:32:37;;;;;;;4.55;1.77;;;;;;;39.88;28.38;101300.25;4955876;28;20616;-64
2022/08/23 09:35:12;;;;;;;5.80;2.03;;;;;;;39.99;28.04;101310.09;4972700;28;20459;-64
2022/08/23 09:37:56;;;;;;;5.72;1.52;;;;;;;40.10;27.91;101301.19;4972754;28;20605;-64
2022/08/23 09:40:24;;;;;;;5.45;1.95;;;;;;;40.21;28.35;101307.41;4951102;28;20110;-64
2022/08/23 09:43:11;;;;;;;6.15;1.92;;;;;;;40.28;27.54;101306.97;4977811;28;20045;-64
2022/08/23 09:45:51;;;;;;;8.07;2.08;;;;;;;40.25;27.14;101300.00;5013154;28;20038;-64
2022/08/23 09:48:49;;;;;;;3.55;1.70;;;;;;;40.39;27.57;101291.53;4994193;28;20029;-64
2022/08/23 09:51:16;;;;;;;5.75;1.55;;;;;;;40.75;27.42;101299.94;5003686;28;20058;-64
2022/08/23 09:53:45;;;;;;;4.95;2.10;;;;;;;41.22;27.00;101299.28;4994012;28;20022;-64
2022/08/23 09:56:18;;;;;;;6.55;2.88;;;;;;;41.91;26.32;101297.63;4992857;28;20133;-65
2022/08/23 09:58:45;;;;;;;5.38;1.60;;;;;;;42.84;25.11;101301.69;4993994;28;20535;-64
2022/08/23 10:01:17;;;;;;;7.30;1.65;;;;;;;44.53;23.78;101298.81;4992773;28;20029;-65
2022/08/23 10:03:43;;;;;;;2.72;1.60;;;;;;;45.44;22.95;101300.53;4992789;28;20072;-65
2022/08/23 10:06:14;;;;;;;4.40;1.38;;;;;;;44.90;23.40;101288.47;4992601;28;20051;-65
2022/08/23 10:08:51;;;;;;;5.90;1.92;;;;;;;44.44;23.58;101296.03;4992919;28;20038;-64
2022/08/23 10:11:23;;;;;;;9.38;1.42;;;;;;;44.15;24.03;101278.28;5011337;28;20395;-64
2022/08/23 10:13:49;;;;;;;4.55;0.85;;;;;;;44.18;23.97;101291.72;5013421;28;20026;-64
2022/08/23 10:16:41;;;;;;;4.25;1.38;;;;;;;44.24;23.52;101287.53;5012349;28;20026;-64
2022/08/23 10:19:26;;;;;;;2.70;0.80;;;;;;;44.33;23.74;101288.31;5012110;28;20121;-64
2022/08/23 10:22:02;;;;;;;5.65;1.20;;;;;;;44.48;23.58;101287.66;5013398;28;20022;-64
2022/08/23 10:24:44;;;;;;;6.25;1.20;;;;;;;44.57;23.64;101285.59;5012105;28;20056;-65
2022/08/23 10:30:20;;;;;;;3.50;0.98;;;;;;;45.05;23.39;101288.63;5015615;28;19964;-65
2022/08/23 10:33:06;;;;;;;3.20;1.17;;;;;;;45.21;23.00;101290.78;4999701;28;20034;-63
2022/08/23 10:35:44;;;;;;;2.45;1.70;;;;;;;45.48;22.32;101281.66;5016028;28;20132;-62
2022/08/23 10:38:35;;;;;;;6.43;1.40;;;;;;;45.68;22.54;101281.56;5017059;28;20101;-64
2022/08/23 10:41:18;;;;;;;2.40;1.08;;;;;;;45.89;22.22;101284.25;5008655;28;20719;-65
2022/08/23 10:43:53;;;;;;;3.67;1.33;;;;;;;45.98;21.58;101282.13;5017015;28;20022;-65
2022/08/23 10:46:21;;;;;;;3.17;0.90;;;;;;;46.07;21.65;101277.16;5016914;28;20380;-65
2022/08/23 10:48:54;;;;;;;4.00;0.70;;;;;;;46.19;21.52;101282.81;5015888;28;20471;-65
2022/08/23 10:51:26;;;;;;;2.40;0.95;;;;;;;46.28;21.42;101276.16;5016990;28;20391;-65
2022/08/23 10:53:59;;;;;;;5.43;1.23;;;;;;;46.22;21.19;101276.41;5015999;28;20568;-65
2022/08/23 10:56:26;;;;;;;3.58;1.30;;;;;;;46.23;21.15;101289.44;5016783;28;20523;-65
2022/08/23 10:58:53;;;;;;;3.95;1.10;;;;;;;46.15;20.95;101290.34;5015576;28;20025;-65
2022/08/23 11:01:36;;;;;;;4.70;1.17;;;;;;;46.08;21.29;101269.47;5016393;28;20083;-65
2022/08/23 11:04:04;;;;;;;5.95;1.50;;;;;;;46.09;21.11;101280.47;5015480;28;20406;-65
2022/08/23 11:06:36;;;;;;;6.90;1.00;;;;;;;46.18;20.88;101271.84;5015285;28;20451;-65
2022/08/23 11:09:09;;;;;;;3.85;1.23;;;;;;;46.27;21.13;101269.66;5016600;28;20384;-65
2022/08/23 11:11:40;;;;;;;4.22;1.10;;;;;;;46.35;21.46;101270.72;5016554;28;20108;-65
2022/08/23 11:14:12;;;;;;;2.70;1.13;;;;;;;46.46;21.03;101271.88;5015347;28;20479;-64
2022/08/23 11:16:41;;;;;;;2.40;1.15;;;;;;;46.52;21.03;101276.09;5015143;28;20018;-64
2022/08/23 11:19:11;;;;;;;6.65;1.05;;;;;;;46.61;20.63;101271.94;5016579;28;20033;-65
2022/08/23 11:21:37;;;;;;;2.30;1.10;;;;;;;46.63;20.96;101272.38;5015236;28;20383;-65
2022/08/23 11:24:02;;;;;;;1.83;0.90;;;;;;;46.78;20.73;101276.47;5016176;28;20101;-65
2022/08/23 11:26:35;;;;;;;2.70;1.20;;;;;;;46.82;20.61;101279.44;5014917;28;20022;-64
2022/08/23 11:29:06;;;;;;;2.95;1.05;;;;;;;46.21;20.64;101271.94;5016111;28;20262;-65
2022/08/23 11:32:19;;;;;;;4.72;1.20;;;;;;;45.31;21.12;101267.72;5016176;28;20056;-65
2022/08/23 11:35:07;;;;;;;3.97;0.90;;;;;;;45.47;20.65;101265.84;5016110;28;20029;-64
2022/08/23 11:37:48;;;;;;;1.25;1.00;;;;;;;45.68;20.65;101260.88;5015169;28;20026;-65
2022/08/23 11:40:14;;;;;;;4.40;1.10;;;;;;;45.91;20.72;101266.88;5015490;28;20535;-64
2022/08/23 11:42:47;;;;;;;3.50;0.88;;;;;;;46.10;20.80;101265.09;5014791;28;20376;-65
2022/08/23 11:45:44;;;;;;;3.53;1.42;;;;;;;45.50;20.77;101263.13;4998303;28;20491;-65